createdAt,value
2019-04-16T00:00:56.882Z,1017.59
2019-04-16T00:01:56.847Z,1017.58
2019-04-16T00:02:56.831Z,1017.58
2019-04-16T00:03:56.823Z,1017.61
2019-04-16T00:04:57.601Z,1017.60
2019-04-16T00:05:58.926Z,1017.58
2019-04-16T00:06:56.795Z,1017.54
2019-04-16T00:07:56.784Z,1017.52
2019-04-16T00:08:58.225Z,1017.49
2019-04-16T00:09:56.759Z,1017.52
2019-04-16T00:10:56.748Z,1017.49
2019-04-16T00:11:56.749Z,1017.51
2019-04-16T00:12:56.733Z,1017.46
2019-04-16T00:13:56.858Z,1017.49
2019-04-16T00:14:56.701Z,1017.44
2019-04-16T00:15:56.689Z,1017.45
2019-04-16T00:16:56.679Z,1017.47
2019-04-16T00:17:56.681Z,1017.44
2019-04-16T00:19:00.927Z,1017.44
2019-04-16T00:19:57.643Z,1017.41
2019-04-16T00:20:56.649Z,1017.40
2019-04-16T00:21:56.629Z,1017.41
2019-04-16T00:22:56.627Z,1017.35
2019-04-16T00:23:56.607Z,1017.33
2019-04-16T00:24:56.591Z,1017.33
2019-04-16T00:25:56.764Z,1017.33
2019-04-16T00:26:59.341Z,1017.29
2019-04-16T00:27:59.597Z,1017.29
2019-04-16T00:28:56.616Z,1017.27
2019-04-16T00:29:56.583Z,1017.28
2019-04-16T00:30:56.760Z,1017.26
2019-04-16T00:31:56.651Z,1017.28
2019-04-16T00:32:56.503Z,1017.29
2019-04-16T00:33:56.507Z,1017.24
2019-04-16T00:34:56.487Z,1017.24
2019-04-16T00:35:56.485Z,1017.27
2019-04-16T00:36:56.459Z,1017.26
2019-04-16T00:37:56.451Z,1017.22
2019-04-16T00:38:56.445Z,1017.25
2019-04-16T00:39:56.974Z,1017.23
2019-04-16T00:41:00.747Z,1017.24
2019-04-16T00:41:57.454Z,1017.25
2019-04-16T00:42:56.401Z,1017.19
2019-04-16T00:43:56.394Z,1017.16
2019-04-16T00:44:56.379Z,1017.20
2019-04-16T00:45:56.367Z,1017.18
2019-04-16T00:46:56.419Z,1017.16
2019-04-16T00:47:56.345Z,1017.15
2019-04-16T00:48:56.335Z,1017.14
2019-04-16T00:49:58.855Z,1017.11
2019-04-16T00:50:56.309Z,1017.12
2019-04-16T00:51:56.306Z,1017.10
2019-04-16T00:52:56.289Z,1017.12
2019-04-16T00:53:56.278Z,1017.12
2019-04-16T00:54:56.265Z,1017.12
2019-04-16T00:55:56.262Z,1017.13
2019-04-16T00:56:56.247Z,1017.13
2019-04-16T00:57:56.238Z,1017.12
2019-04-16T00:58:56.227Z,1017.08
2019-04-16T00:59:56.766Z,1017.12
2019-04-16T01:00:56.211Z,1017.14
2019-04-16T01:01:56.325Z,1017.12
2019-04-16T01:02:56.436Z,1017.10
2019-04-16T01:03:56.384Z,1017.12
2019-04-16T01:04:56.312Z,1017.14
2019-04-16T01:05:56.258Z,1017.11
2019-04-16T01:06:56.466Z,1017.09
2019-04-16T01:07:56.475Z,1017.13
2019-04-16T01:08:56.127Z,1017.12
2019-04-16T01:09:56.113Z,1017.11
2019-04-16T01:10:56.105Z,1017.08
2019-04-16T01:11:56.089Z,1017.04
2019-04-16T01:12:56.092Z,1017.03
2019-04-16T01:13:56.316Z,1017.03
2019-04-16T01:14:58.918Z,1017.02
2019-04-16T01:15:56.053Z,1016.98
2019-04-16T01:16:56.033Z,1017.00
2019-04-16T01:17:56.027Z,1017.02
2019-04-16T01:18:56.011Z,1017.03
2019-04-16T01:19:56.002Z,1017.04
2019-04-16T01:20:55.993Z,1017.00
2019-04-16T01:21:55.992Z,1017.05
2019-04-16T01:22:55.971Z,1017.03
2019-04-16T01:23:55.962Z,1017.01
2019-04-16T01:24:55.948Z,1016.97
2019-04-16T01:25:56.242Z,1016.99
2019-04-16T01:26:58.266Z,1017.02
2019-04-16T01:27:59.873Z,1017.00
2019-04-16T01:28:56.905Z,1016.98
2019-04-16T01:29:55.891Z,1016.97
2019-04-16T01:30:55.893Z,1016.95
2019-04-16T01:31:55.871Z,1016.93
2019-04-16T01:32:55.864Z,1017.02
2019-04-16T01:33:55.855Z,1016.97
2019-04-16T01:34:55.842Z,1016.97
2019-04-16T01:35:55.833Z,1016.94
2019-04-16T01:36:55.822Z,1016.99
2019-04-16T01:37:56.793Z,1016.98
2019-04-16T01:39:10.988Z,1016.99
2019-04-16T01:39:56.789Z,1016.97
2019-04-16T01:40:55.775Z,1016.99
2019-04-16T01:41:55.765Z,1016.97
2019-04-16T01:42:55.748Z,1016.94
2019-04-16T01:43:57.195Z,1016.97
2019-04-16T01:44:59.377Z,1017.00
2019-04-16T01:46:00.851Z,1016.98
2019-04-16T01:46:56.709Z,1016.98
2019-04-16T01:47:55.697Z,1016.99
2019-04-16T01:48:55.685Z,1016.95
2019-04-16T01:49:55.673Z,1016.98
2019-04-16T01:50:55.675Z,1016.94
2019-04-16T01:51:55.649Z,1016.97
2019-04-16T01:52:55.643Z,1016.93
2019-04-16T01:53:55.627Z,1016.93
2019-04-16T01:54:55.706Z,1016.91
2019-04-16T01:55:56.953Z,1016.92
2019-04-16T01:56:59.459Z,1016.93
2019-04-16T01:57:55.593Z,1016.92
2019-04-16T01:58:55.580Z,1016.91
2019-04-16T01:59:55.565Z,1016.90
2019-04-16T02:00:55.558Z,1016.90
2019-04-16T02:01:55.559Z,1016.95
2019-04-16T02:02:55.553Z,1016.94
2019-04-16T02:03:55.527Z,1016.95
2019-04-16T02:04:55.521Z,1016.91
2019-04-16T02:05:55.613Z,1016.95
2019-04-16T02:06:57.242Z,1016.92
2019-04-16T02:07:56.325Z,1016.94
2019-04-16T02:08:55.483Z,1016.96
2019-04-16T02:09:55.459Z,1016.96
2019-04-16T02:10:55.444Z,1016.90
2019-04-16T02:11:55.441Z,1016.96
2019-04-16T02:12:55.435Z,1016.96
2019-04-16T02:13:55.423Z,1016.97
2019-04-16T02:14:55.415Z,1016.97
2019-04-16T02:15:55.399Z,1016.98
2019-04-16T02:16:55.996Z,1016.97
2019-04-16T02:17:58.688Z,1017.01
2019-04-16T02:18:55.361Z,1016.96
2019-04-16T02:19:55.362Z,1016.99
2019-04-16T02:20:55.339Z,1017.03
2019-04-16T02:21:55.332Z,1017.00
2019-04-16T02:22:55.321Z,1016.98
2019-04-16T02:23:55.307Z,1017.02
2019-04-16T02:24:55.297Z,1017.02
2019-04-16T02:25:55.297Z,1016.99
2019-04-16T02:26:55.535Z,1017.05
2019-04-16T02:27:57.092Z,1017.03
2019-04-16T02:28:56.478Z,1017.03
2019-04-16T02:29:55.241Z,1017.00
2019-04-16T02:30:55.235Z,1017.08
2019-04-16T02:31:55.230Z,1017.01
2019-04-16T02:32:55.238Z,1017.04
2019-04-16T02:33:55.205Z,1017.09
2019-04-16T02:34:55.207Z,1017.09
2019-04-16T02:35:55.179Z,1017.09
2019-04-16T02:37:00.553Z,1017.12
2019-04-16T02:37:56.159Z,1017.10
2019-04-16T02:38:55.162Z,1017.10
2019-04-16T02:39:55.138Z,1017.07
2019-04-16T02:40:55.124Z,1017.07
2019-04-16T02:41:58.059Z,1017.10
2019-04-16T02:42:55.105Z,1017.05
2019-04-16T02:43:55.097Z,1017.06
2019-04-16T02:44:55.084Z,1017.06
2019-04-16T02:45:58.063Z,1017.09
2019-04-16T02:46:55.068Z,1017.05
2019-04-16T02:47:55.050Z,1017.06
2019-04-16T02:48:55.045Z,1017.07
2019-04-16T02:49:56.750Z,1017.08
2019-04-16T02:50:55.019Z,1017.05
2019-04-16T02:51:55.007Z,1017.02
2019-04-16T02:52:55.001Z,1017.03
2019-04-16T02:53:58.901Z,1017.05
2019-04-16T02:54:54.984Z,1017.04
2019-04-16T02:55:54.960Z,1017.07
2019-04-16T02:56:54.957Z,1017.00
2019-04-16T02:57:59.481Z,1017.00
2019-04-16T02:58:55.930Z,1017.05
2019-04-16T02:59:54.917Z,1017.01
2019-04-16T03:00:54.905Z,1017.02
2019-04-16T03:01:54.901Z,1017.06
2019-04-16T03:02:54.893Z,1017.05
2019-04-16T03:03:56.244Z,1017.02
2019-04-16T03:04:58.182Z,1017.06
2019-04-16T03:05:54.858Z,1017.09
2019-04-16T03:06:54.858Z,1017.07
2019-04-16T03:07:54.834Z,1017.07
2019-04-16T03:08:54.824Z,1017.07
2019-04-16T03:10:01.157Z,1017.04
2019-04-16T03:10:55.811Z,1017.06
2019-04-16T03:11:54.809Z,1017.03
2019-04-16T03:12:54.789Z,1017.04
2019-04-16T03:13:58.334Z,1017.04
2019-04-16T03:14:54.760Z,1017.03
2019-04-16T03:15:54.759Z,1016.97
2019-04-16T03:16:54.742Z,1017.00
2019-04-16T03:17:54.733Z,1017.03
2019-04-16T03:18:54.723Z,1017.04
2019-04-16T03:19:54.729Z,1017.06
2019-04-16T03:20:55.713Z,1017.04
2019-04-16T03:21:55.771Z,1017.06
2019-04-16T03:22:54.681Z,1017.03
2019-04-16T03:23:54.671Z,1017.07
2019-04-16T03:24:54.659Z,1016.99
2019-04-16T03:25:54.645Z,1017.01
2019-04-16T03:26:54.646Z,1016.98
2019-04-16T03:27:55.117Z,1017.00
2019-04-16T03:28:55.699Z,1016.99
2019-04-16T03:29:54.601Z,1016.97
2019-04-16T03:30:54.604Z,1017.01
2019-04-16T03:31:58.214Z,1016.98
2019-04-16T03:32:54.574Z,1017.05
2019-04-16T03:33:54.570Z,1017.09
2019-04-16T03:34:54.547Z,1017.02
2019-04-16T03:35:57.574Z,1017.04
2019-04-16T03:36:54.545Z,1017.01
2019-04-16T03:37:54.533Z,1017.01
2019-04-16T03:38:54.507Z,1016.98
2019-04-16T03:39:54.499Z,1017.00
2019-04-16T03:40:56.077Z,1017.01
2019-04-16T03:41:56.182Z,1017.02
2019-04-16T03:42:58.923Z,1016.99
2019-04-16T03:43:55.455Z,1017.01
2019-04-16T03:44:54.503Z,1017.01
2019-04-16T03:45:54.447Z,1016.99
2019-04-16T03:46:54.436Z,1017.03
2019-04-16T03:47:54.424Z,1017.04
2019-04-16T03:48:56.099Z,1017.04
2019-04-16T03:49:56.412Z,1017.08
2019-04-16T03:50:54.382Z,1017.04
2019-04-16T03:51:54.373Z,1017.06
2019-04-16T03:52:54.363Z,1017.07
2019-04-16T03:53:54.368Z,1017.06
2019-04-16T03:54:54.731Z,1017.10
2019-04-16T03:55:54.590Z,1017.05
2019-04-16T03:56:54.316Z,1017.06
2019-04-16T03:57:54.325Z,1017.04
2019-04-16T03:58:54.303Z,1017.07
2019-04-16T03:59:54.288Z,1017.10
2019-04-16T04:00:54.281Z,1017.05
2019-04-16T04:01:54.276Z,1017.07
2019-04-16T04:02:55.154Z,1017.06
2019-04-16T04:03:54.519Z,1017.09
2019-04-16T04:04:54.235Z,1017.06
2019-04-16T04:05:54.237Z,1017.07
2019-04-16T04:06:54.221Z,1017.01
2019-04-16T04:07:55.449Z,1017.00
2019-04-16T04:08:54.191Z,1017.04
2019-04-16T04:09:55.175Z,1017.04
2019-04-16T04:10:54.173Z,1017.09
2019-04-16T04:11:54.172Z,1017.04
2019-04-16T04:12:54.151Z,1017.04
2019-04-16T04:13:54.141Z,1017.09
2019-04-16T04:14:55.092Z,1017.04
2019-04-16T04:15:55.215Z,1017.07
2019-04-16T04:16:54.111Z,1017.07
2019-04-16T04:17:54.111Z,1017.06
2019-04-16T04:18:54.087Z,1017.04
2019-04-16T04:19:54.106Z,1017.02
2019-04-16T04:20:54.069Z,1017.07
2019-04-16T04:21:54.484Z,1017.06
2019-04-16T04:22:56.772Z,1017.04
2019-04-16T04:23:54.041Z,1017.04
2019-04-16T04:24:54.035Z,1017.04
2019-04-16T04:25:54.015Z,1017.06
2019-04-16T04:26:54.003Z,1017.04
2019-04-16T04:27:53.994Z,1017.03
2019-04-16T04:28:53.987Z,1016.97
2019-04-16T04:29:56.527Z,1017.00
2019-04-16T04:30:53.970Z,1017.03
2019-04-16T04:31:53.954Z,1017.02
2019-04-16T04:32:53.950Z,1016.98
2019-04-16T04:33:53.939Z,1017.08
2019-04-16T04:34:53.931Z,1017.06
2019-04-16T04:35:53.922Z,1017.00
2019-04-16T04:36:58.869Z,1017.05
2019-04-16T04:37:54.889Z,1017.04
2019-04-16T04:38:53.877Z,1017.08
2019-04-16T04:39:53.865Z,1017.07
2019-04-16T04:40:53.865Z,1017.09
2019-04-16T04:41:56.469Z,1017.11
2019-04-16T04:42:53.842Z,1017.09
2019-04-16T04:43:53.826Z,1017.12
2019-04-16T04:44:53.833Z,1017.12
2019-04-16T04:45:53.803Z,1017.12
2019-04-16T04:46:53.797Z,1017.15
2019-04-16T04:47:53.780Z,1017.15
2019-04-16T04:48:55.741Z,1017.16
2019-04-16T04:49:53.761Z,1017.19
2019-04-16T04:50:53.746Z,1017.15
2019-04-16T04:51:53.737Z,1017.22
2019-04-16T04:52:53.734Z,1017.24
2019-04-16T04:53:53.715Z,1017.18
2019-04-16T04:54:54.122Z,1017.17
2019-04-16T04:55:54.400Z,1017.17
2019-04-16T04:56:56.434Z,1017.22
2019-04-16T04:57:54.677Z,1017.13
2019-04-16T04:58:53.666Z,1017.17
2019-04-16T04:59:53.655Z,1017.18
2019-04-16T05:00:53.650Z,1017.19
2019-04-16T05:01:53.636Z,1017.17
2019-04-16T05:02:53.629Z,1017.16
2019-04-16T05:03:53.629Z,1017.19
2019-04-16T05:04:53.605Z,1017.13
2019-04-16T05:05:56.066Z,1017.12
2019-04-16T05:06:54.438Z,1017.14
2019-04-16T05:07:53.571Z,1017.16
2019-04-16T05:08:53.561Z,1017.10
2019-04-16T05:09:53.554Z,1017.16
2019-04-16T05:10:59.772Z,1017.14
2019-04-16T05:11:54.526Z,1017.13
2019-04-16T05:12:53.813Z,1017.14
2019-04-16T05:13:56.478Z,1017.11
2019-04-16T05:14:57.371Z,1017.13
2019-04-16T05:15:53.487Z,1017.13
2019-04-16T05:16:53.491Z,1017.14
2019-04-16T05:17:53.460Z,1017.17
2019-04-16T05:18:53.459Z,1017.11
2019-04-16T05:19:53.445Z,1017.13
2019-04-16T05:20:53.440Z,1017.16
2019-04-16T05:21:53.425Z,1017.11
2019-04-16T05:22:54.503Z,1017.07
2019-04-16T05:23:56.789Z,1017.10
2019-04-16T05:24:53.391Z,1017.09
2019-04-16T05:25:53.381Z,1017.09
2019-04-16T05:26:56.272Z,1017.08
2019-04-16T05:27:53.358Z,1017.12
2019-04-16T05:28:53.348Z,1017.17
2019-04-16T05:29:53.345Z,1017.12
2019-04-16T05:30:53.325Z,1017.14
2019-04-16T05:31:54.565Z,1017.13
2019-04-16T05:32:53.300Z,1017.13
2019-04-16T05:33:53.296Z,1017.14
2019-04-16T05:34:53.275Z,1017.16
2019-04-16T05:35:53.271Z,1017.16
2019-04-16T05:36:53.269Z,1017.15
2019-04-16T05:37:53.245Z,1017.17
2019-04-16T05:38:55.749Z,1017.17
2019-04-16T05:39:53.230Z,1017.20
2019-04-16T05:40:53.215Z,1017.18
2019-04-16T05:41:53.597Z,1017.20
2019-04-16T05:42:58.248Z,1017.18
2019-04-16T05:43:54.189Z,1017.18
2019-04-16T05:44:53.175Z,1017.19
2019-04-16T05:45:53.165Z,1017.21
2019-04-16T05:46:53.147Z,1017.22
2019-04-16T05:47:53.141Z,1017.22
2019-04-16T05:48:54.011Z,1017.16
2019-04-16T05:49:54.470Z,1017.21
2019-04-16T05:50:53.111Z,1017.16
2019-04-16T05:51:53.089Z,1017.20
2019-04-16T05:52:53.109Z,1017.20
2019-04-16T05:53:53.072Z,1017.22
2019-04-16T05:54:53.064Z,1017.20
2019-04-16T05:55:53.051Z,1017.20
2019-04-16T05:56:55.525Z,1017.18
2019-04-16T05:57:57.954Z,1017.21
2019-04-16T05:58:54.015Z,1017.21
2019-04-16T05:59:53.011Z,1017.29
2019-04-16T06:00:53.001Z,1017.30
2019-04-16T06:01:52.990Z,1017.34
2019-04-16T06:02:52.982Z,1017.27
2019-04-16T06:03:53.310Z,1017.32
2019-04-16T06:04:55.615Z,1017.28
2019-04-16T06:05:52.952Z,1017.37
2019-04-16T06:06:52.934Z,1017.29
2019-04-16T06:07:52.929Z,1017.31
2019-04-16T06:08:56.071Z,1017.35
2019-04-16T06:09:52.901Z,1017.36
2019-04-16T06:10:52.887Z,1017.31
2019-04-16T06:11:52.880Z,1017.32
2019-04-16T06:12:52.865Z,1017.37
2019-04-16T06:13:52.864Z,1017.41
2019-04-16T06:14:54.046Z,1017.37
2019-04-16T06:15:53.921Z,1017.43
2019-04-16T06:16:53.376Z,1017.41
2019-04-16T06:17:52.817Z,1017.43
2019-04-16T06:18:52.798Z,1017.37
2019-04-16T06:19:52.791Z,1017.40
2019-04-16T06:20:53.702Z,1017.45
2019-04-16T06:21:56.397Z,1017.45
2019-04-16T06:22:52.758Z,1017.40
2019-04-16T06:23:52.749Z,1017.41
2019-04-16T06:24:52.753Z,1017.38
2019-04-16T06:25:52.733Z,1017.35
2019-04-16T06:26:52.722Z,1017.39
2019-04-16T06:27:52.710Z,1017.39
2019-04-16T06:28:56.402Z,1017.35
2019-04-16T06:29:53.683Z,1017.38
2019-04-16T06:30:52.677Z,1017.34
2019-04-16T06:31:52.658Z,1017.32
2019-04-16T06:32:52.650Z,1017.25
2019-04-16T06:33:52.639Z,1017.24
2019-04-16T06:34:52.632Z,1017.23
2019-04-16T06:35:52.617Z,1017.18
2019-04-16T06:36:52.608Z,1017.20
2019-04-16T06:37:52.599Z,1017.16
2019-04-16T06:38:55.017Z,1017.19
2019-04-16T06:39:52.597Z,1017.22
2019-04-16T06:40:52.575Z,1017.23
2019-04-16T06:41:52.802Z,1017.19
2019-04-16T06:42:54.261Z,1017.18
2019-04-16T06:43:52.541Z,1017.14
2019-04-16T06:44:52.523Z,1017.15
2019-04-16T06:45:52.563Z,1017.17
2019-04-16T06:46:52.501Z,1017.19
2019-04-16T06:47:52.497Z,1017.21
2019-04-16T06:48:52.478Z,1017.18
2019-04-16T06:49:52.469Z,1017.19
2019-04-16T06:50:52.458Z,1017.23
2019-04-16T06:51:52.445Z,1017.14
2019-04-16T06:52:52.436Z,1017.25
2019-04-16T06:53:53.952Z,1017.30
2019-04-16T06:54:52.414Z,1017.35
2019-04-16T06:55:52.403Z,1017.41
2019-04-16T06:56:52.392Z,1017.31
2019-04-16T06:57:52.382Z,1017.38
2019-04-16T06:58:57.195Z,1017.40
2019-04-16T06:59:53.357Z,1017.43
2019-04-16T07:00:52.346Z,1017.40
2019-04-16T07:01:52.339Z,1017.46
2019-04-16T07:03:02.204Z,1017.42
2019-04-16T07:03:58.489Z,1017.41
2019-04-16T07:04:53.303Z,1017.39
2019-04-16T07:05:52.295Z,1017.39
2019-04-16T07:06:52.281Z,1017.39
2019-04-16T07:07:52.273Z,1017.42
2019-04-16T07:08:52.265Z,1017.41
2019-04-16T07:09:56.707Z,1017.36
2019-04-16T07:10:53.241Z,1017.42
2019-04-16T07:11:54.722Z,1017.39
2019-04-16T07:12:52.315Z,1017.38
2019-04-16T07:13:52.203Z,1017.43
2019-04-16T07:14:52.197Z,1017.37
2019-04-16T07:15:53.304Z,1017.38
2019-04-16T07:16:52.179Z,1017.36
2019-04-16T07:17:52.170Z,1017.40
2019-04-16T07:18:52.154Z,1017.38
2019-04-16T07:19:52.147Z,1017.30
2019-04-16T07:20:52.135Z,1017.19
2019-04-16T07:21:52.138Z,1017.08
2019-04-16T07:22:52.910Z,1017.04
2019-04-16T07:23:56.853Z,1017.02
2019-04-16T07:24:53.168Z,1017.00
2019-04-16T07:25:52.089Z,1017.11
2019-04-16T07:26:55.940Z,1017.10
2019-04-16T07:27:53.743Z,1017.10
2019-04-16T07:28:58.507Z,1017.12
2019-04-16T07:29:53.347Z,1017.06
2019-04-16T07:30:52.029Z,1017.04
2019-04-16T07:31:53.494Z,1017.05
2019-04-16T07:32:52.003Z,1017.07
2019-04-16T07:33:52.001Z,1017.11
2019-04-16T07:34:51.993Z,1017.10
2019-04-16T07:35:51.971Z,1017.09
2019-04-16T07:36:51.957Z,1017.11
2019-04-16T07:37:51.949Z,1017.05
2019-04-16T07:38:51.943Z,1017.14
2019-04-16T07:39:51.927Z,1017.13
2019-04-16T07:40:51.925Z,1017.15
2019-04-16T07:41:51.917Z,1017.10
2019-04-16T07:42:52.420Z,1017.16
2019-04-16T07:43:53.056Z,1017.10
2019-04-16T07:44:54.894Z,1017.07
2019-04-16T07:45:51.868Z,1017.08
2019-04-16T07:46:51.857Z,1017.09
2019-04-16T07:47:52.466Z,1017.05
2019-04-16T07:48:54.653Z,1017.09
2019-04-16T07:49:51.829Z,1017.13
2019-04-16T07:50:53.050Z,1017.05
2019-04-16T07:51:51.795Z,1017.09
2019-04-16T07:52:51.800Z,1017.09
2019-04-16T07:53:51.778Z,1017.10
2019-04-16T07:54:51.768Z,1017.09
2019-04-16T07:55:51.759Z,1017.10
2019-04-16T07:56:51.746Z,1017.11
2019-04-16T07:57:51.733Z,1017.15
2019-04-16T07:58:51.776Z,1017.07
2019-04-16T07:59:51.721Z,1017.09
2019-04-16T08:00:51.703Z,1017.13
2019-04-16T08:01:51.693Z,1017.09
2019-04-16T08:02:53.651Z,1017.08
2019-04-16T08:03:51.693Z,1017.07
2019-04-16T08:04:51.662Z,1017.11
2019-04-16T08:05:51.651Z,1017.17
2019-04-16T08:06:51.640Z,1017.18
2019-04-16T08:07:52.886Z,1017.13
2019-04-16T08:08:53.936Z,1017.18
2019-04-16T08:09:52.611Z,1017.23
2019-04-16T08:10:51.601Z,1017.33
2019-04-16T08:11:51.601Z,1017.45
2019-04-16T08:12:51.565Z,1017.45
2019-04-16T08:13:51.560Z,1017.44
2019-04-16T08:14:51.569Z,1017.31
2019-04-16T08:15:51.539Z,1017.28
2019-04-16T08:16:51.533Z,1017.23
2019-04-16T08:17:51.516Z,1017.23
2019-04-16T08:18:51.504Z,1017.25
2019-04-16T08:19:51.500Z,1017.18
2019-04-16T08:21:01.303Z,1017.20
2019-04-16T08:21:52.499Z,1017.15
2019-04-16T08:22:51.467Z,1017.20
2019-04-16T08:23:53.006Z,1017.18
2019-04-16T08:24:51.441Z,1017.12
2019-04-16T08:26:00.266Z,1017.14
2019-04-16T08:26:52.423Z,1017.13
2019-04-16T08:27:53.984Z,1017.15
2019-04-16T08:28:51.404Z,1017.13
2019-04-16T08:29:51.391Z,1017.13
2019-04-16T08:30:51.379Z,1017.19
2019-04-16T08:31:51.366Z,1017.18
2019-04-16T08:32:51.369Z,1017.22
2019-04-16T08:33:51.349Z,1017.16
2019-04-16T08:34:51.344Z,1017.22
2019-04-16T08:35:51.321Z,1017.29
2019-04-16T08:36:51.318Z,1017.29
2019-04-16T08:37:51.305Z,1017.41
2019-04-16T08:38:51.294Z,1017.45
2019-04-16T08:39:51.291Z,1017.40
2019-04-16T08:40:51.269Z,1017.51
2019-04-16T08:41:52.374Z,1017.49
2019-04-16T08:42:51.249Z,1017.52
2019-04-16T08:43:51.244Z,1017.58
2019-04-16T08:44:51.230Z,1017.55
2019-04-16T08:45:51.216Z,1017.49
2019-04-16T08:46:51.210Z,1017.58
2019-04-16T08:47:51.196Z,1017.50
2019-04-16T08:48:54.090Z,1017.53
2019-04-16T08:49:54.135Z,1017.51
2019-04-16T08:50:51.159Z,1017.57
2019-04-16T08:51:51.167Z,1017.55
2019-04-16T08:52:51.146Z,1017.50
2019-04-16T08:53:51.125Z,1017.48
2019-04-16T08:54:54.677Z,1017.51
2019-04-16T08:55:51.111Z,1017.47
2019-04-16T08:56:51.103Z,1017.41
2019-04-16T08:57:51.090Z,1017.36
2019-04-16T08:58:51.075Z,1017.17
2019-04-16T08:59:51.070Z,1017.05
2019-04-16T09:00:51.057Z,1017.17
2019-04-16T09:01:51.404Z,1017.14
2019-04-16T09:02:51.035Z,1017.15
2019-04-16T09:03:51.020Z,1017.14
2019-04-16T09:04:51.010Z,1017.00
2019-04-16T09:05:51.001Z,1017.11
2019-04-16T09:06:50.987Z,1017.15
2019-04-16T09:07:51.676Z,1017.11
2019-04-16T09:08:53.199Z,1017.06
2019-04-16T09:09:50.971Z,1017.01
2019-04-16T09:10:50.958Z,1017.06
2019-04-16T09:11:50.937Z,1017.06
2019-04-16T09:13:02.362Z,1017.04
2019-04-16T09:13:51.940Z,1017.02
2019-04-16T09:14:54.907Z,1017.00
2019-04-16T09:15:51.901Z,1017.04
2019-04-16T09:16:50.892Z,1017.05
2019-04-16T09:17:50.880Z,1017.01
2019-04-16T09:18:50.865Z,1017.01
2019-04-16T09:19:50.868Z,1016.96
2019-04-16T09:20:50.845Z,1016.96
2019-04-16T09:21:50.845Z,1016.98
2019-04-16T09:22:53.658Z,1017.03
2019-04-16T09:23:50.813Z,1017.13
2019-04-16T09:24:50.799Z,1017.01
2019-04-16T09:25:50.789Z,1016.99
2019-04-16T09:26:52.768Z,1017.00
2019-04-16T09:27:50.767Z,1017.09
2019-04-16T09:28:50.754Z,1017.11
2019-04-16T09:29:50.745Z,1017.03
2019-04-16T09:30:50.758Z,1017.00
2019-04-16T09:31:55.082Z,1017.01
2019-04-16T09:32:51.723Z,1017.08
2019-04-16T09:33:50.701Z,1017.41
2019-04-16T09:34:50.691Z,1017.09
2019-04-16T09:35:50.680Z,1017.02
2019-04-16T09:36:50.677Z,1017.02
2019-04-16T09:37:50.661Z,1017.11
2019-04-16T09:38:50.646Z,1016.99
2019-04-16T09:39:50.638Z,1017.07
2019-04-16T09:40:50.631Z,1017.08
2019-04-16T09:41:50.625Z,1017.11
2019-04-16T09:42:50.879Z,1017.00
2019-04-16T09:43:53.777Z,1017.10
2019-04-16T09:44:51.590Z,1017.19
2019-04-16T09:45:50.573Z,1017.07
2019-04-16T09:46:52.049Z,1017.15
2019-04-16T09:47:50.563Z,1017.15
2019-04-16T09:48:50.547Z,1017.07
2019-04-16T09:49:50.533Z,1017.15
2019-04-16T09:50:50.518Z,1017.09
2019-04-16T09:51:51.242Z,1017.15
2019-04-16T09:52:52.382Z,1017.06
2019-04-16T09:53:50.506Z,1017.04
2019-04-16T09:54:50.482Z,1017.18
2019-04-16T09:55:51.217Z,1017.03
2019-04-16T09:56:50.453Z,1017.11
2019-04-16T09:57:50.442Z,1017.04
2019-04-16T09:58:50.433Z,1016.96
2019-04-16T09:59:50.419Z,1017.03
2019-04-16T10:00:50.407Z,1017.01
2019-04-16T10:01:50.397Z,1017.01
2019-04-16T10:02:50.405Z,1017.04
2019-04-16T10:03:53.494Z,1016.96
2019-04-16T10:04:50.367Z,1017.24
2019-04-16T10:05:50.353Z,1017.23
2019-04-16T10:06:50.345Z,1017.06
2019-04-16T10:07:50.350Z,1017.14
2019-04-16T10:08:50.333Z,1017.05
2019-04-16T10:09:51.373Z,1017.20
2019-04-16T10:10:50.302Z,1017.13
2019-04-16T10:11:50.306Z,1017.15
2019-04-16T10:12:50.282Z,1017.07
2019-04-16T10:13:50.266Z,1017.04
2019-04-16T10:14:50.291Z,1016.95
2019-04-16T10:15:50.246Z,1017.05
2019-04-16T10:16:50.246Z,1016.97
2019-04-16T10:17:50.242Z,1016.93
2019-04-16T10:18:50.224Z,1016.86
2019-04-16T10:19:50.206Z,1016.91
2019-04-16T10:20:50.232Z,1016.96
2019-04-16T10:21:53.411Z,1017.11
2019-04-16T10:22:50.170Z,1016.97
2019-04-16T10:23:50.174Z,1016.92
2019-04-16T10:24:50.157Z,1016.91
2019-04-16T10:25:50.156Z,1016.95
2019-04-16T10:26:50.142Z,1016.82
2019-04-16T10:27:50.152Z,1016.93
2019-04-16T10:28:50.108Z,1016.90
2019-04-16T10:29:50.099Z,1017.05
2019-04-16T10:30:50.084Z,1016.83
2019-04-16T10:31:50.075Z,1016.83
2019-04-16T10:32:50.072Z,1016.87
2019-04-16T10:33:50.054Z,1016.91
2019-04-16T10:34:50.067Z,1016.85
2019-04-16T10:35:50.037Z,1016.83
2019-04-16T10:36:50.024Z,1016.98
2019-04-16T10:37:50.019Z,1016.94
2019-04-16T10:38:50.014Z,1017.11
2019-04-16T10:39:49.988Z,1017.15
2019-04-16T10:40:50.001Z,1017.16
2019-04-16T10:41:49.976Z,1017.11
2019-04-16T10:42:49.973Z,1017.27
2019-04-16T10:43:50.003Z,1017.21
2019-04-16T10:44:50.033Z,1017.12
2019-04-16T10:45:49.985Z,1017.18
2019-04-16T10:46:50.019Z,1017.21
2019-04-16T10:47:49.899Z,1017.14
2019-04-16T10:48:49.912Z,1017.46
2019-04-16T10:49:49.890Z,1017.30
2019-04-16T10:50:49.877Z,1017.25
2019-04-16T10:51:49.865Z,1017.13
2019-04-16T10:52:54.071Z,1017.13
2019-04-16T10:53:50.852Z,1017.21
2019-04-16T10:54:49.848Z,1017.20
2019-04-16T10:55:49.838Z,1016.94
2019-04-16T10:56:49.807Z,1017.02
2019-04-16T10:57:49.799Z,1017.10
2019-04-16T10:58:49.788Z,1017.13
2019-04-16T10:59:49.785Z,1017.04
2019-04-16T11:00:49.787Z,1017.02
2019-04-16T11:01:49.773Z,1017.06
2019-04-16T11:02:49.741Z,1017.10
2019-04-16T11:03:49.741Z,1016.96
2019-04-16T11:04:49.721Z,1017.02
2019-04-16T11:05:49.718Z,1016.94
2019-04-16T11:06:49.731Z,1016.84
2019-04-16T11:07:49.692Z,1016.84
2019-04-16T11:08:49.682Z,1016.85
2019-04-16T11:09:49.678Z,1016.97
2019-04-16T11:10:49.667Z,1016.84
2019-04-16T11:11:49.750Z,1016.87
2019-04-16T11:12:49.646Z,1016.81
2019-04-16T11:13:59.585Z,1016.78
2019-04-16T11:14:50.614Z,1016.87
2019-04-16T11:15:49.614Z,1016.79
2019-04-16T11:16:49.616Z,1016.72
2019-04-16T11:17:49.603Z,1016.71
2019-04-16T11:18:49.574Z,1016.69
2019-04-16T11:19:52.771Z,1016.63
2019-04-16T11:20:49.576Z,1016.63
2019-04-16T11:21:49.554Z,1016.67
2019-04-16T11:22:49.569Z,1016.71
2019-04-16T11:23:49.546Z,1016.67
2019-04-16T11:24:49.547Z,1016.49
2019-04-16T11:25:49.499Z,1016.52
2019-04-16T11:26:49.494Z,1016.55
2019-04-16T11:27:49.506Z,1016.66
2019-04-16T11:28:49.484Z,1016.58
2019-04-16T11:29:49.454Z,1016.51
2019-04-16T11:30:49.468Z,1016.62
2019-04-16T11:31:49.440Z,1016.58
2019-04-16T11:32:49.421Z,1016.63
2019-04-16T11:33:49.417Z,1016.58
2019-04-16T11:34:49.427Z,1016.54
2019-04-16T11:35:52.765Z,1016.53
2019-04-16T11:36:49.391Z,1016.56
2019-04-16T11:37:49.379Z,1016.48
2019-04-16T11:38:49.436Z,1016.47
2019-04-16T11:39:49.360Z,1016.47
2019-04-16T11:40:49.384Z,1016.44
2019-04-16T11:41:49.336Z,1016.58
2019-04-16T11:42:49.337Z,1016.56
2019-04-16T11:43:49.330Z,1016.52
2019-04-16T11:44:50.398Z,1016.50
2019-04-16T11:45:49.287Z,1016.52
2019-04-16T11:46:49.292Z,1016.54
2019-04-16T11:47:49.281Z,1016.53
2019-04-16T11:48:50.327Z,1016.42
2019-04-16T11:49:49.262Z,1016.43
2019-04-16T11:50:49.239Z,1016.38
2019-04-16T11:51:49.232Z,1016.48
2019-04-16T11:52:49.215Z,1016.50
2019-04-16T11:53:49.217Z,1016.51
2019-04-16T11:54:49.192Z,1016.53
2019-04-16T11:55:49.183Z,1016.43
2019-04-16T11:56:49.212Z,1016.47
2019-04-16T11:57:49.202Z,1016.47
2019-04-16T11:58:49.155Z,1016.54
2019-04-16T11:59:49.166Z,1016.56
2019-04-16T12:00:49.161Z,1016.69
2019-04-16T12:01:49.113Z,1016.63
2019-04-16T12:02:49.120Z,1016.53
2019-04-16T12:03:49.092Z,1016.66
2019-04-16T12:04:49.103Z,1016.60
2019-04-16T12:05:49.126Z,1016.51